Aérodrome :
LOGIN :

S'inscrire | Disclaimer

   EN    FR    IT 

 










Légende :    VFR   VFR Marginal   IFR   IFR Intensif   IFR Très Intensif
Visi : 
Plafond : 
>= 8 km
>= 3000ft
5 à 8 km
1000 à 3000 ft
1500m à 5 km
500 à 1000 ft
800 à 1500m
200 à 500 ft
< 800m
< 200 ft
Symboles :   Orages  Brouillard  Fortes neiges  Fortes précipitations  Vent > 20 kt
SIGMETs :   Divers  Orages  Givrage  Turbulence  Onde Orograph.  Cendres Volcan.






- Altitude de l'aérodrome : 327 ft
- Code IATA : BHX


EGBB - Birmingham

DERNIER METAR :
  • 211850Z 10009KT 5000 HZ BKN009 05/03 Q1000

METARs EXPIRÉS :
  • 211820Z 10009KT 5000 HZ BKN010 05/03 Q1000
  • 211750Z 10009KT 6000 OVC009 05/03 Q1000
  • 211720Z 10010KT 6000 OVC009 05/03 Q1000
  • 211650Z 10011KT 6000 OVC010 05/03 Q1001
  • 211620Z 09009KT 6000 OVC011 05/03 Q1001

TAF TAF EGBB
Valide du 21 à 18h jusqu'au 22 à 18h UTC


211657Z 2118/2218 10008KT 9000 BKN010
TEMPO 2118/2203 4000 RA BKN003
BECMG 2121/2124 BKN008
PROB30
TEMPO 2203/2209 RA
PROB30
TEMPO 2203/2206 4000 BR BKN003
BECMG 2206/2209 9999 SCT018
TEMPO 2209/2218 4000 RA BKN009
ATIS : +44 121 780 0910



MET'MAP, la Météo Aéronautique d'un coup d'oeil ! - Copyright ORBIFLY Décembre 2007 - Disclaimer

ORBIFLY MET'MAP TEAM :

Programmation & Développement : Alexandra Zaïnal
Conception & Développement : Baudouin d'Aumeries
Co-Programmation & Développement : Marc-Olivier Méhu
Soutien technique & logistique : Manuel Goepfert

Contact : metmap@orbifly.com




SOURCES & CREDITS :

   NOAA